Carnival Valor — H3VR — position and weather

sailwx.info

Track history (hours):
 
Tides and Currents Weather Stations Pressure Air Temp Water Temp Dewpoint Dewpoint Depression Visibility Wind Speed Wind Dir Waves Ship Positions

Carnival Valor

Last reported at 2019-Jul-19 16:00 UTC. Time now 2019-Jul-20 01:53 UTC.
Position N 26°06' W 089°18'.

Type: Ship. MMSI: 354298000.

Wind from 120 at 15 knots

Barometer 1018.3 mb
Air temperature 29.0 ° C
Visibility: greater than 10.8 NM
Dewpoint 19.9 ° C
Water temperature 31.0 ° C

Date/timePositionNaut miles runAvg speedWind from/ knotsBaromVisibWave heightAir tempDewpointWater temp
2019-Jul-19 16:00N 26°06' W 089°18'19818.0 120 / 151018.310.8 29.019.931.0
2019-Jul-19 05:00N 22°48' W 089°12'519.2 090 / 161016.110.8 28.022.130.0
2019-Jul-19 04:44N 22°51' W 089°17'416.3
2019-Jul-19 04:29N 22°47' W 089°16'816.2
2019-Jul-19 04:00N 22°39' W 089°16'816.4
2019-Jul-19 03:30N 22°31' W 089°16'816.1
2019-Jul-19 03:00N 22°23' W 089°16'1616.1
2019-Jul-19 02:01N 22°08' W 089°23'015.7
2019-Jul-19 02:00N 22°08' W 089°23'815.7
2019-Jul-19 01:30N 22°00' W 089°26'815.7
2019-Jul-19 01:00N 21°53' W 089°30'815.8
2019-Jul-19 00:30N 21°46' W 089°33'815.5
2019-Jul-19 00:00N 21°39' W 089°36'714.6
2019-Jul-18 23:30N 21°32' W 089°39'612.2
2019-Jul-18 23:00N 21°27' W 089°42'611.3
2019-Jul-18 22:30N 21°21' W 089°41'1 1.7
2019-Jul-18 21:59N 21°21' W 089°41'0 0.0
2019-Jul-18 21:23N 21°21' W 089°41'0 0.0
2019-Jul-18 20:58N 21°21' W 089°41'0 0.0
2019-Jul-18 20:28N 21°21' W 089°41'0 0.0
2019-Jul-18 19:58N 21°21' W 089°41'0 0.0
2019-Jul-18 19:30N 21°21' W 089°41'0 0.0
2019-Jul-18 18:55N 21°21' W 089°41'0 0.0
2019-Jul-18 18:30N 21°21' W 089°41'0 0.0
2019-Jul-18 18:00N 21°21' W 089°41'0 0.0
2019-Jul-18 17:30N 21°21' W 089°41'0 0.0
2019-Jul-18 17:00N 21°21' W 089°41'0 0.0
2019-Jul-18 16:26N 21°21' W 089°41'0 0.0
2019-Jul-18 15:59N 21°21' W 089°41'0 0.0
2019-Jul-18 15:29N 21°21' W 089°41'0 0.0
2019-Jul-18 14:59N 21°21' W 089°41'0 0.0
2019-Jul-18 14:29N 21°21' W 089°41'0 0.0
2019-Jul-18 13:58N 21°21' W 089°41'0 0.1
2019-Jul-18 13:30N 21°20' W 089°41'5 9.6
2019-Jul-18 13:00N 21°25' W 089°41'510.5
2019-Jul-18 12:30N 21°30' W 089°39'510.7
2019-Jul-18 12:00N 21°34' W 089°35'815.9
2019-Jul-18 11:30N 21°41' W 089°31'917.8
2019-Jul-18 11:00N 21°44' W 089°22'918.0
2019-Jul-18 10:29N 21°46' W 089°12'917.8
2019-Jul-18 09:57N 21°48' W 089°02'  
2019-Jul-15 23:37N 29°37' W 089°53'213.4
2019-Jul-15 23:27N 29°38' W 089°55'612.0
2019-Jul-15 22:59N 29°43' W 089°59'612.3
2019-Jul-15 22:28N 29°49' W 090°00'510.7
2019-Jul-15 22:00N 29°52' W 089°56'3 6.6
2019-Jul-15 21:30N 29°55' W 089°57'611.3
2019-Jul-15 21:01N 29°58' W 090°03'1 2.5
2019-Jul-15 20:29N 29°56' W 090°04'0 0.0
2019-Jul-15 19:59N 29°56' W 090°04'0 0.0
2019-Jul-15 19:26N 29°56' W 090°04'0 0.0
2019-Jul-15 18:59N 29°56' W 090°04'0 0.0
2019-Jul-15 18:28N 29°56' W 090°04'0 0.0
2019-Jul-15 17:58N 29°56' W 090°04'0 0.0
2019-Jul-15 17:28N 29°56' W 090°04'0 0.0
2019-Jul-15 16:58N 29°56' W 090°04'0 0.0
2019-Jul-15 16:27N 29°56' W 090°04'0 0.0
2019-Jul-15 16:00N 29°56' W 090°04'0 0.0
2019-Jul-15 15:24N 29°56' W 090°04'0 0.0
2019-Jul-15 15:00N 29°56' W 090°04'0 0.0
2019-Jul-15 14:30N 29°56' W 090°04'0 0.0
2019-Jul-15 13:59N 29°56' W 090°04'0 0.0
2019-Jul-15 13:29N 29°56' W 090°04'0 0.0
2019-Jul-15 12:59N 29°56' W 090°04'0 0.0
2019-Jul-15 12:29N 29°56' W 090°04'0 0.0
2019-Jul-15 11:59N 29°56' W 090°04'1 1.5
2019-Jul-15 11:30N 29°57' W 090°04'3 5.6
2019-Jul-15 11:00N 29°57' W 090°00'4 7.0
2019-Jul-15 10:30N 29°55' W 089°57'3 5.5
2019-Jul-15 09:58N 29°52' W 089°57'510.6
2019-Jul-15 09:30N 29°49' W 090°00'611.7
2019-Jul-15 09:00N 29°43' W 089°59'31716.7
2019-Jul-14 14:00N 24°48' W 087°48'25718.6 130 / 171017.810.8 29.021.631.0
2019-Jul-14 00:08N 20°35' W 086°59'214.9
2019-Jul-14 00:00N 20°33' W 087°00'4 8.8
2019-Jul-13 23:30N 20°29' W 086°59'0 0.6
2019-Jul-13 22:57N 20°29' W 086°59'0 0.0
2019-Jul-13 22:30N 20°29' W 086°59'0 0.0
2019-Jul-13 22:00N 20°29' W 086°59'0 0.0
2019-Jul-13 21:30N 20°29' W 086°59'0 0.0
2019-Jul-13 20:59N 20°29' W 086°59'0 0.0
2019-Jul-13 20:29N 20°29' W 086°59'0 0.0
2019-Jul-13 19:59N 20°29' W 086°59'0 0.0
2019-Jul-13 19:29N 20°29' W 086°59'0 0.0
2019-Jul-13 18:59N 20°29' W 086°59'0 0.0
2019-Jul-13 18:28N 20°29' W 086°59'0 0.0
2019-Jul-13 17:58N 20°29' W 086°59'0 0.0
2019-Jul-13 17:28N 20°29' W 086°59'0 0.0
2019-Jul-13 16:55N 20°29' W 086°59'0 0.0
2019-Jul-13 16:27N 20°29' W 086°59'0 0.0
2019-Jul-13 16:00N 20°29' W 086°59'0 0.0
2019-Jul-13 15:27N 20°29' W 086°59'0 0.0
2019-Jul-13 15:00N 20°29' W 086°59'0 0.0
2019-Jul-13 14:30N 20°29' W 086°59'0 0.0
2019-Jul-13 14:00N 20°29' W 086°59'3 5.6
2019-Jul-13 13:31N 20°31' W 086°60'612.6
2019-Jul-13 13:00N 20°37' W 086°57'48618.0
2019-Jul-12 10:00N 28°42' W 087°30'231 5.1 180 / 401006.8 5.4 26.024.629.0
2019-Jul-10 13:00N 25°12' W 089°18'4824.0 270 / 151014.710.8 29.021.629.0
2019-Jul-10 11:00N 24°24' W 089°18'16114.9 270 / 71014.310.8 29.021.630.0
2019-Jul-10 00:10N 21°44' W 089°34'315.6
2019-Jul-10 00:01N 21°42' W 089°35'815.5
2019-Jul-09 23:30N 21°34' W 089°38'714.7
2019-Jul-09 23:00N 21°27' W 089°41'611.3
2019-Jul-09 22:30N 21°22' W 089°41'2 3.0
2019-Jul-09 22:00N 21°21' W 089°41'0 0.0
2019-Jul-09 21:30N 21°21' W 089°41'0 0.0
2019-Jul-09 21:00N 21°21' W 089°41'0 0.0
2019-Jul-09 20:30N 21°21' W 089°41'0 0.0
2019-Jul-09 20:00N 21°21' W 089°41'0 0.0
2019-Jul-09 19:29N 21°21' W 089°41'0 0.0
2019-Jul-09 18:59N 21°21' W 089°41'0 0.0
2019-Jul-09 18:29N 21°21' W 089°41'0 0.0
2019-Jul-09 17:59N 21°21' W 089°41'0 0.0
2019-Jul-09 17:28N 21°21' W 089°41'0 0.0
2019-Jul-09 16:58N 21°21' W 089°41'0 0.0
2019-Jul-09 16:28N 21°21' W 089°41'  
Track history (hours):
 
Tides and Currents Weather Stations Pressure Air Temp Water Temp Dewpoint Dewpoint Depression Visibility Wind Speed Wind Dir Waves Ship Positions

Carnival Valor

Last reported at 2019-Jul-19 16:00 UTC. Time now 2019-Jul-20 01:53 UTC.
Position N 26°06' W 089°18'.

Type: Ship. MMSI: 354298000.

Wind from 120 at 15 knots

Barometer 1018.3 mb
Air temperature 29.0 ° C
Visibility: greater than 10.8 NM
Dewpoint 19.9 ° C
Water temperature 31.0 ° C

Date/timePositionNaut miles runAvg speedWind from/ knotsBaromVisibWave heightAir tempDewpointWater temp
2019-Jul-19 16:00N 26°06' W 089°18'19818.0 120 / 151018.310.8 29.019.931.0
2019-Jul-19 05:00N 22°48' W 089°12'519.2 090 / 161016.110.8 28.022.130.0
2019-Jul-19 04:44N 22°51' W 089°17'416.3
2019-Jul-19 04:29N 22°47' W 089°16'816.2
2019-Jul-19 04:00N 22°39' W 089°16'816.4
2019-Jul-19 03:30N 22°31' W 089°16'816.1
2019-Jul-19 03:00N 22°23' W 089°16'1616.1
2019-Jul-19 02:01N 22°08' W 089°23'015.7
2019-Jul-19 02:00N 22°08' W 089°23'815.7
2019-Jul-19 01:30N 22°00' W 089°26'815.7
2019-Jul-19 01:00N 21°53' W 089°30'815.8
2019-Jul-19 00:30N 21°46' W 089°33'815.5
2019-Jul-19 00:00N 21°39' W 089°36'714.6
2019-Jul-18 23:30N 21°32' W 089°39'612.2
2019-Jul-18 23:00N 21°27' W 089°42'611.3
2019-Jul-18 22:30N 21°21' W 089°41'1 1.7
2019-Jul-18 21:59N 21°21' W 089°41'0 0.0
2019-Jul-18 21:23N 21°21' W 089°41'0 0.0
2019-Jul-18 20:58N 21°21' W 089°41'0 0.0
2019-Jul-18 20:28N 21°21' W 089°41'0 0.0
2019-Jul-18 19:58N 21°21' W 089°41'0 0.0
2019-Jul-18 19:30N 21°21' W 089°41'0 0.0
2019-Jul-18 18:55N 21°21' W 089°41'0 0.0
2019-Jul-18 18:30N 21°21' W 089°41'0 0.0
2019-Jul-18 18:00N 21°21' W 089°41'0 0.0
2019-Jul-18 17:30N 21°21' W 089°41'0 0.0
2019-Jul-18 17:00N 21°21' W 089°41'0 0.0
2019-Jul-18 16:26N 21°21' W 089°41'0 0.0
2019-Jul-18 15:59N 21°21' W 089°41'0 0.0
2019-Jul-18 15:29N 21°21' W 089°41'0 0.0
2019-Jul-18 14:59N 21°21' W 089°41'0 0.0
2019-Jul-18 14:29N 21°21' W 089°41'0 0.0
2019-Jul-18 13:58N 21°21' W 089°41'0 0.1
2019-Jul-18 13:30N 21°20' W 089°41'5 9.6
2019-Jul-18 13:00N 21°25' W 089°41'510.5
2019-Jul-18 12:30N 21°30' W 089°39'510.7
2019-Jul-18 12:00N 21°34' W 089°35'815.9
2019-Jul-18 11:30N 21°41' W 089°31'917.8
2019-Jul-18 11:00N 21°44' W 089°22'918.0
2019-Jul-18 10:29N 21°46' W 089°12'917.8
2019-Jul-18 09:57N 21°48' W 089°02'  
2019-Jul-15 23:37N 29°37' W 089°53'213.4
2019-Jul-15 23:27N 29°38' W 089°55'612.0
2019-Jul-15 22:59N 29°43' W 089°59'612.3
2019-Jul-15 22:28N 29°49' W 090°00'510.7
2019-Jul-15 22:00N 29°52' W 089°56'3 6.6
2019-Jul-15 21:30N 29°55' W 089°57'611.3
2019-Jul-15 21:01N 29°58' W 090°03'1 2.5
2019-Jul-15 20:29N 29°56' W 090°04'0 0.0
2019-Jul-15 19:59N 29°56' W 090°04'0 0.0
2019-Jul-15 19:26N 29°56' W 090°04'0 0.0
2019-Jul-15 18:59N 29°56' W 090°04'0 0.0
2019-Jul-15 18:28N 29°56' W 090°04'0 0.0
2019-Jul-15 17:58N 29°56' W 090°04'0 0.0
2019-Jul-15 17:28N 29°56' W 090°04'0 0.0
2019-Jul-15 16:58N 29°56' W 090°04'0 0.0
2019-Jul-15 16:27N 29°56' W 090°04'0 0.0
2019-Jul-15 16:00N 29°56' W 090°04'0 0.0
2019-Jul-15 15:24N 29°56' W 090°04'0 0.0
2019-Jul-15 15:00N 29°56' W 090°04'0 0.0
2019-Jul-15 14:30N 29°56' W 090°04'0 0.0
2019-Jul-15 13:59N 29°56' W 090°04'0 0.0
2019-Jul-15 13:29N 29°56' W 090°04'0 0.0
2019-Jul-15 12:59N 29°56' W 090°04'0 0.0
2019-Jul-15 12:29N 29°56' W 090°04'0 0.0
2019-Jul-15 11:59N 29°56' W 090°04'1 1.5
2019-Jul-15 11:30N 29°57' W 090°04'3 5.6
2019-Jul-15 11:00N 29°57' W 090°00'4 7.0
2019-Jul-15 10:30N 29°55' W 089°57'3 5.5
2019-Jul-15 09:58N 29°52' W 089°57'510.6
2019-Jul-15 09:30N 29°49' W 090°00'611.7
2019-Jul-15 09:00N 29°43' W 089°59'31716.7
2019-Jul-14 14:00N 24°48' W 087°48'25718.6 130 / 171017.810.8 29.021.631.0
2019-Jul-14 00:08N 20°35' W 086°59'214.9
2019-Jul-14 00:00N 20°33' W 087°00'4 8.8
2019-Jul-13 23:30N 20°29' W 086°59'0 0.6
2019-Jul-13 22:57N 20°29' W 086°59'0 0.0
2019-Jul-13 22:30N 20°29' W 086°59'0 0.0
2019-Jul-13 22:00N 20°29' W 086°59'0 0.0
2019-Jul-13 21:30N 20°29' W 086°59'0 0.0
2019-Jul-13 20:59N 20°29' W 086°59'0 0.0
2019-Jul-13 20:29N 20°29' W 086°59'0 0.0
2019-Jul-13 19:59N 20°29' W 086°59'0 0.0
2019-Jul-13 19:29N 20°29' W 086°59'0 0.0
2019-Jul-13 18:59N 20°29' W 086°59'0 0.0
2019-Jul-13 18:28N 20°29' W 086°59'0 0.0
2019-Jul-13 17:58N 20°29' W 086°59'0 0.0
2019-Jul-13 17:28N 20°29' W 086°59'0 0.0
2019-Jul-13 16:55N 20°29' W 086°59'0 0.0
2019-Jul-13 16:27N 20°29' W 086°59'0 0.0
2019-Jul-13 16:00N 20°29' W 086°59'0 0.0
2019-Jul-13 15:27N 20°29' W 086°59'0 0.0
2019-Jul-13 15:00N 20°29' W 086°59'0 0.0
2019-Jul-13 14:30N 20°29' W 086°59'0 0.0
2019-Jul-13 14:00N 20°29' W 086°59'3 5.6
2019-Jul-13 13:31N 20°31' W 086°60'612.6
2019-Jul-13 13:00N 20°37' W 086°57'48618.0
2019-Jul-12 10:00N 28°42' W 087°30'231 5.1 180 / 401006.8 5.4 26.024.629.0
2019-Jul-10 13:00N 25°12' W 089°18'4824.0 270 / 151014.710.8 29.021.629.0
2019-Jul-10 11:00N 24°24' W 089°18'16114.9 270 / 71014.310.8 29.021.630.0
2019-Jul-10 00:10N 21°44' W 089°34'315.6
2019-Jul-10 00:01N 21°42' W 089°35'815.5
2019-Jul-09 23:30N 21°34' W 089°38'714.7
2019-Jul-09 23:00N 21°27' W 089°41'611.3
2019-Jul-09 22:30N 21°22' W 089°41'2 3.0
2019-Jul-09 22:00N 21°21' W 089°41'0 0.0
2019-Jul-09 21:30N 21°21' W 089°41'0 0.0
2019-Jul-09 21:00N 21°21' W 089°41'0 0.0
2019-Jul-09 20:30N 21°21' W 089°41'0 0.0
2019-Jul-09 20:00N 21°21' W 089°41'0 0.0
2019-Jul-09 19:29N 21°21' W 089°41'0 0.0
2019-Jul-09 18:59N 21°21' W 089°41'0 0.0
2019-Jul-09 18:29N 21°21' W 089°41'0 0.0
2019-Jul-09 17:59N 21°21' W 089°41'0 0.0
2019-Jul-09 17:28N 21°21' W 089°41'0 0.0
2019-Jul-09 16:58N 21°21' W 089°41'0 0.0
2019-Jul-09 16:28N 21°21' W 089°41'  

Dump ship's entire track history